sensor_id;sensor_type;location;lat;lon;timestamp;temperature;humidity
13148;DHT22;6639;50.956;4.242;2022-10-31T00:01:24;22.70;99.90
13148;DHT22;6639;50.956;4.242;2022-10-31T00:03:52;22.80;99.90
13148;DHT22;6639;50.956;4.242;2022-10-31T00:06:19;23.00;99.90
13148;DHT22;6639;50.956;4.242;2022-10-31T00:08:46;23.10;99.90
13148;DHT22;6639;50.956;4.242;2022-10-31T00:11:13;23.20;99.90
13148;DHT22;6639;50.956;4.242;2022-10-31T00:13:41;23.10;99.90
13148;DHT22;6639;50.956;4.242;2022-10-31T00:16:14;23.10;99.90
13148;DHT22;6639;50.956;4.242;2022-10-31T00:18:41;23.10;99.90
13148;DHT22;6639;50.956;4.242;2022-10-31T00:21:08;23.20;99.90
13148;DHT22;6639;50.956;4.242;2022-10-31T00:23:35;23.20;99.90
13148;DHT22;6639;50.956;4.242;2022-10-31T00:26:03;23.20;99.90
13148;DHT22;6639;50.956;4.242;2022-10-31T00:28:31;22.90;99.90
13148;DHT22;6639;50.956;4.242;2022-10-31T00:31:00;22.90;99.90
13148;DHT22;6639;50.956;4.242;2022-10-31T00:33:28;22.90;99.90
13148;DHT22;6639;50.956;4.242;2022-10-31T00:35:56;22.80;99.90
13148;DHT22;6639;50.956;4.242;2022-10-31T00:38:23;22.60;99.90
13148;DHT22;6639;50.956;4.242;2022-10-31T00:40:50;22.50;99.90
13148;DHT22;6639;50.956;4.242;2022-10-31T00:43:17;22.50;99.90
13148;DHT22;6639;50.956;4.242;2022-10-31T00:45:44;22.20;99.90
13148;DHT22;6639;50.956;4.242;2022-10-31T00:48:12;22.20;99.90
13148;DHT22;6639;50.956;4.242;2022-10-31T00:50:39;22.10;99.90
13148;DHT22;6639;50.956;4.242;2022-10-31T00:53:06;22.10;99.90
13148;DHT22;6639;50.956;4.242;2022-10-31T00:55:33;22.00;99.90
13148;DHT22;6639;50.956;4.242;2022-10-31T00:58:00;21.80;99.90
13148;DHT22;6639;50.956;4.242;2022-10-31T01:00:27;21.90;99.90
13148;DHT22;6639;50.956;4.242;2022-10-31T01:02:54;22.00;99.90
13148;DHT22;6639;50.956;4.242;2022-10-31T01:05:23;21.90;99.90
13148;DHT22;6639;50.956;4.242;2022-10-31T01:07:50;21.90;99.90
13148;DHT22;6639;50.956;4.242;2022-10-31T01:10:17;22.10;99.90
13148;DHT22;6639;50.956;4.242;2022-10-31T01:12:46;22.10;99.90
13148;DHT22;6639;50.956;4.242;2022-10-31T01:15:16;22.10;99.90
13148;DHT22;6639;50.956;4.242;2022-10-31T01:17:43;22.10;99.90
13148;DHT22;6639;50.956;4.242;2022-10-31T01:20:11;22.10;99.90
13148;DHT22;6639;50.956;4.242;2022-10-31T01:22:40;22.10;99.90
13148;DHT22;6639;50.956;4.242;2022-10-31T01:25:08;22.10;99.90
13148;DHT22;6639;50.956;4.242;2022-10-31T01:27:35;22.20;99.90
13148;DHT22;6639;50.956;4.242;2022-10-31T01:30:03;22.20;99.90
13148;DHT22;6639;50.956;4.242;2022-10-31T01:32:30;22.20;99.80
13148;DHT22;6639;50.956;4.242;2022-10-31T01:34:57;22.20;99.60
13148;DHT22;6639;50.956;4.242;2022-10-31T01:37:24;22.20;99.60
13148;DHT22;6639;50.956;4.242;2022-10-31T01:39:52;22.20;99.40
13148;DHT22;6639;50.956;4.242;2022-10-31T01:42:21;22.30;99.20
13148;DHT22;6639;50.956;4.242;2022-10-31T01:44:55;22.30;99.00
13148;DHT22;6639;50.956;4.242;2022-10-31T01:47:34;22.20;99.30
13148;DHT22;6639;50.956;4.242;2022-10-31T01:50:10;22.00;99.50
13148;DHT22;6639;50.956;4.242;2022-10-31T01:52:40;22.00;99.80
13148;DHT22;6639;50.956;4.242;2022-10-31T01:55:13;21.80;99.90
13148;DHT22;6639;50.956;4.242;2022-10-31T01:57:45;21.80;99.90
13148;DHT22;6639;50.956;4.242;2022-10-31T02:00:14;21.90;99.90
13148;DHT22;6639;50.956;4.242;2022-10-31T02:02:41;21.90;99.90
13148;DHT22;6639;50.956;4.242;2022-10-31T02:05:10;21.70;99.90
13148;DHT22;6639;50.956;4.242;2022-10-31T02:07:43;21.60;99.90
13148;DHT22;6639;50.956;4.242;2022-10-31T02:10:13;21.70;99.90
13148;DHT22;6639;50.956;4.242;2022-10-31T02:12:41;21.60;99.90
13148;DHT22;6639;50.956;4.242;2022-10-31T02:15:09;21.60;99.90
13148;DHT22;6639;50.956;4.242;2022-10-31T02:17:36;21.70;99.90
13148;DHT22;6639;50.956;4.242;2022-10-31T02:20:11;21.70;99.90
13148;DHT22;6639;50.956;4.242;2022-10-31T02:22:59;21.60;99.90
13148;DHT22;6639;50.956;4.242;2022-10-31T02:25:58;21.70;99.90
13148;DHT22;6639;50.956;4.242;2022-10-31T02:28:56;21.60;99.90
13148;DHT22;6639;50.956;4.242;2022-10-31T02:31:32;21.50;99.90
13148;DHT22;6639;50.956;4.242;2022-10-31T02:34:05;21.20;99.90
13148;DHT22;6639;50.956;4.242;2022-10-31T02:36:41;21.20;99.90
13148;DHT22;6639;50.956;4.242;2022-10-31T02:39:12;21.20;99.90
13148;DHT22;6639;50.956;4.242;2022-10-31T02:41:48;21.30;99.90
13148;DHT22;6639;50.956;4.242;2022-10-31T02:44:20;21.30;99.90
13148;DHT22;6639;50.956;4.242;2022-10-31T02:46:54;21.20;99.90
13148;DHT22;6639;50.956;4.242;2022-10-31T02:49:27;21.30;99.90
13148;DHT22;6639;50.956;4.242;2022-10-31T02:51:55;21.30;99.90
13148;DHT22;6639;50.956;4.242;2022-10-31T02:54:24;21.30;99.90
13148;DHT22;6639;50.956;4.242;2022-10-31T02:56:53;21.30;99.90
13148;DHT22;6639;50.956;4.242;2022-10-31T02:59:22;21.40;99.90
13148;DHT22;6639;50.956;4.242;2022-10-31T03:02:04;21.40;99.90
13148;DHT22;6639;50.956;4.242;2022-10-31T03:04:56;21.40;99.90
13148;DHT22;6639;50.956;4.242;2022-10-31T03:07:31;21.40;99.90
13148;DHT22;6639;50.956;4.242;2022-10-31T03:10:05;21.50;99.80
13148;DHT22;6639;50.956;4.242;2022-10-31T03:12:39;21.60;99.40
13148;DHT22;6639;50.956;4.242;2022-10-31T03:15:14;21.40;99.30
13148;DHT22;6639;50.956;4.242;2022-10-31T03:17:52;21.40;99.20
13148;DHT22;6639;50.956;4.242;2022-10-31T03:20:24;21.30;99.10
13148;DHT22;6639;50.956;4.242;2022-10-31T03:22:53;21.20;99.10
13148;DHT22;6639;50.956;4.242;2022-10-31T03:25:22;21.20;99.50
13148;DHT22;6639;50.956;4.242;2022-10-31T03:27:50;21.10;99.00
13148;DHT22;6639;50.956;4.242;2022-10-31T03:30:17;21.10;99.00
13148;DHT22;6639;50.956;4.242;2022-10-31T03:32:48;21.10;99.00
13148;DHT22;6639;50.956;4.242;2022-10-31T03:35:19;21.10;99.00
13148;DHT22;6639;50.956;4.242;2022-10-31T03:37:48;21.00;99.20
13148;DHT22;6639;50.956;4.242;2022-10-31T03:40:17;21.00;99.10
13148;DHT22;6639;50.956;4.242;2022-10-31T03:42:51;20.90;98.70
13148;DHT22;6639;50.956;4.242;2022-10-31T03:45:23;20.90;98.70
13148;DHT22;6639;50.956;4.242;2022-10-31T03:47:52;20.80;98.60
13148;DHT22;6639;50.956;4.242;2022-10-31T03:50:20;20.80;98.80
13148;DHT22;6639;50.956;4.242;2022-10-31T03:52:49;20.70;98.80
13148;DHT22;6639;50.956;4.242;2022-10-31T03:55:23;20.60;98.80
13148;DHT22;6639;50.956;4.242;2022-10-31T03:57:57;20.70;98.80
13148;DHT22;6639;50.956;4.242;2022-10-31T04:00:25;20.70;98.70
13148;DHT22;6639;50.956;4.242;2022-10-31T04:02:58;20.50;98.40
13148;DHT22;6639;50.956;4.242;2022-10-31T04:05:27;20.60;98.50
13148;DHT22;6639;50.956;4.242;2022-10-31T04:07:57;20.50;98.50
13148;DHT22;6639;50.956;4.242;2022-10-31T04:10:26;20.50;98.50
13148;DHT22;6639;50.956;4.242;2022-10-31T04:12:57;20.40;98.60
13148;DHT22;6639;50.956;4.242;2022-10-31T04:15:25;20.50;98.50
13148;DHT22;6639;50.956;4.242;2022-10-31T04:17:57;20.40;98.40
13148;DHT22;6639;50.956;4.242;2022-10-31T04:20:33;20.40;98.20
13148;DHT22;6639;50.956;4.242;2022-10-31T04:23:00;20.40;98.10
13148;DHT22;6639;50.956;4.242;2022-10-31T04:25:27;20.30;98.00
13148;DHT22;6639;50.956;4.242;2022-10-31T04:27:54;20.30;98.00
13148;DHT22;6639;50.956;4.242;2022-10-31T04:30:21;20.50;98.00
13148;DHT22;6639;50.956;4.242;2022-10-31T04:32:48;20.30;98.00
13148;DHT22;6639;50.956;4.242;2022-10-31T04:35:16;20.30;98.00
13148;DHT22;6639;50.956;4.242;2022-10-31T04:37:43;20.30;98.00
13148;DHT22;6639;50.956;4.242;2022-10-31T04:40:11;20.40;98.50
13148;DHT22;6639;50.956;4.242;2022-10-31T04:42:38;20.20;98.60
13148;DHT22;6639;50.956;4.242;2022-10-31T04:45:05;20.10;98.50
13148;DHT22;6639;50.956;4.242;2022-10-31T04:47:32;20.00;98.60
13148;DHT22;6639;50.956;4.242;2022-10-31T04:50:00;19.90;98.70
13148;DHT22;6639;50.956;4.242;2022-10-31T04:52:28;20.00;98.50
13148;DHT22;6639;50.956;4.242;2022-10-31T04:54:55;20.00;98.50
13148;DHT22;6639;50.956;4.242;2022-10-31T04:57:22;20.10;98.50
13148;DHT22;6639;50.956;4.242;2022-10-31T04:59:49;20.10;98.50
13148;DHT22;6639;50.956;4.242;2022-10-31T05:02:15;20.00;98.70
13148;DHT22;6639;50.956;4.242;2022-10-31T05:04:42;20.00;98.60
13148;DHT22;6639;50.956;4.242;2022-10-31T05:07:09;20.10;98.50
13148;DHT22;6639;50.956;4.242;2022-10-31T05:09:37;20.10;98.20
13148;DHT22;6639;50.956;4.242;2022-10-31T05:12:04;20.00;98.20
13148;DHT22;6639;50.956;4.242;2022-10-31T05:14:31;20.00;98.20
13148;DHT22;6639;50.956;4.242;2022-10-31T05:16:58;19.90;98.20
13148;DHT22;6639;50.956;4.242;2022-10-31T05:19:25;19.90;98.20
13148;DHT22;6639;50.956;4.242;2022-10-31T05:21:52;19.90;98.20
13148;DHT22;6639;50.956;4.242;2022-10-31T05:24:18;19.90;98.30
13148;DHT22;6639;50.956;4.242;2022-10-31T05:26:49;20.00;98.20
13148;DHT22;6639;50.956;4.242;2022-10-31T05:29:15;20.00;98.20
13148;DHT22;6639;50.956;4.242;2022-10-31T05:31:42;19.80;98.30
13148;DHT22;6639;50.956;4.242;2022-10-31T05:34:09;19.70;98.30
13148;DHT22;6639;50.956;4.242;2022-10-31T05:36:36;19.70;98.40
13148;DHT22;6639;50.956;4.242;2022-10-31T05:39:03;19.80;98.50
13148;DHT22;6639;50.956;4.242;2022-10-31T05:41:30;19.80;98.50
13148;DHT22;6639;50.956;4.242;2022-10-31T05:43:58;19.90;98.60
13148;DHT22;6639;50.956;4.242;2022-10-31T05:46:25;19.90;98.80
13148;DHT22;6639;50.956;4.242;2022-10-31T05:48:51;19.80;98.80
13148;DHT22;6639;50.956;4.242;2022-10-31T05:51:18;19.70;98.70
13148;DHT22;6639;50.956;4.242;2022-10-31T05:53:46;19.80;98.60
13148;DHT22;6639;50.956;4.242;2022-10-31T05:56:13;19.90;98.60
13148;DHT22;6639;50.956;4.242;2022-10-31T05:58:40;19.80;98.50
13148;DHT22;6639;50.956;4.242;2022-10-31T06:01:08;19.90;98.50
13148;DHT22;6639;50.956;4.242;2022-10-31T06:03:35;20.00;99.10
13148;DHT22;6639;50.956;4.242;2022-10-31T06:06:02;19.60;99.70
13148;DHT22;6639;50.956;4.242;2022-10-31T06:08:29;19.50;99.90
13148;DHT22;6639;50.956;4.242;2022-10-31T06:10:56;19.60;99.90
13148;DHT22;6639;50.956;4.242;2022-10-31T06:13:22;19.70;99.90
13148;DHT22;6639;50.956;4.242;2022-10-31T06:15:49;19.60;99.90
13148;DHT22;6639;50.956;4.242;2022-10-31T06:18:17;19.70;99.90
13148;DHT22;6639;50.956;4.242;2022-10-31T06:20:44;19.70;99.70
13148;DHT22;6639;50.956;4.242;2022-10-31T06:23:11;19.90;99.70
13148;DHT22;6639;50.956;4.242;2022-10-31T06:25:38;19.90;99.60
13148;DHT22;6639;50.956;4.242;2022-10-31T06:28:05;19.80;99.60
13148;DHT22;6639;50.956;4.242;2022-10-31T06:30:32;19.80;99.90
13148;DHT22;6639;50.956;4.242;2022-10-31T06:33:02;20.00;99.90
13148;DHT22;6639;50.956;4.242;2022-10-31T06:35:31;19.90;99.90
13148;DHT22;6639;50.956;4.242;2022-10-31T06:37:58;20.00;99.90
13148;DHT22;6639;50.956;4.242;2022-10-31T06:40:25;20.10;99.90
13148;DHT22;6639;50.956;4.242;2022-10-31T06:42:58;20.20;99.90
13148;DHT22;6639;50.956;4.242;2022-10-31T06:45:25;20.30;99.90
13148;DHT22;6639;50.956;4.242;2022-10-31T06:47:53;20.30;99.90
13148;DHT22;6639;50.956;4.242;2022-10-31T06:50:20;20.20;99.90
13148;DHT22;6639;50.956;4.242;2022-10-31T06:52:52;20.10;99.90
13148;DHT22;6639;50.956;4.242;2022-10-31T06:55:19;20.00;99.90
13148;DHT22;6639;50.956;4.242;2022-10-31T06:57:51;19.70;99.90
13148;DHT22;6639;50.956;4.242;2022-10-31T07:00:18;20.00;99.90
13148;DHT22;6639;50.956;4.242;2022-10-31T07:02:53;20.10;99.90
13148;DHT22;6639;50.956;4.242;2022-10-31T07:05:21;20.20;99.90
13148;DHT22;6639;50.956;4.242;2022-10-31T07:07:53;20.40;99.90
13148;DHT22;6639;50.956;4.242;2022-10-31T07:10:20;20.30;99.90
13148;DHT22;6639;50.956;4.242;2022-10-31T07:12:47;20.40;99.90
13148;DHT22;6639;50.956;4.242;2022-10-31T07:15:14;20.30;99.90
13148;DHT22;6639;50.956;4.242;2022-10-31T07:17:41;20.40;99.90
13148;DHT22;6639;50.956;4.242;2022-10-31T07:20:09;20.50;99.90
13148;DHT22;6639;50.956;4.242;2022-10-31T07:22:36;20.60;99.90
13148;DHT22;6639;50.956;4.242;2022-10-31T07:25:06;20.50;99.90
13148;DHT22;6639;50.956;4.242;2022-10-31T07:27:36;20.60;99.90
13148;DHT22;6639;50.956;4.242;2022-10-31T07:30:04;20.70;99.90
13148;DHT22;6639;50.956;4.242;2022-10-31T07:32:37;20.90;99.90
13148;DHT22;6639;50.956;4.242;2022-10-31T07:35:04;20.90;99.90
13148;DHT22;6639;50.956;4.242;2022-10-31T07:37:31;21.00;99.90
13148;DHT22;6639;50.956;4.242;2022-10-31T07:39:58;21.00;99.90
13148;DHT22;6639;50.956;4.242;2022-10-31T07:42:27;21.00;99.90
13148;DHT22;6639;50.956;4.242;2022-10-31T07:44:54;21.10;99.90
13148;DHT22;6639;50.956;4.242;2022-10-31T07:47:21;21.10;99.90
13148;DHT22;6639;50.956;4.242;2022-10-31T07:49:47;21.30;99.90
13148;DHT22;6639;50.956;4.242;2022-10-31T07:52:14;21.30;99.90
13148;DHT22;6639;50.956;4.242;2022-10-31T07:54:41;21.40;99.90
13148;DHT22;6639;50.956;4.242;2022-10-31T07:57:08;21.40;99.90
13148;DHT22;6639;50.956;4.242;2022-10-31T07:59:36;21.40;99.90
13148;DHT22;6639;50.956;4.242;2022-10-31T08:02:03;21.50;99.90
13148;DHT22;6639;50.956;4.242;2022-10-31T08:04:30;21.30;99.90
13148;DHT22;6639;50.956;4.242;2022-10-31T08:06:57;21.00;99.90
13148;DHT22;6639;50.956;4.242;2022-10-31T08:09:24;20.60;99.90
13148;DHT22;6639;50.956;4.242;2022-10-31T08:11:52;20.30;99.90
13148;DHT22;6639;50.956;4.242;2022-10-31T08:14:19;20.60;99.90
13148;DHT22;6639;50.956;4.242;2022-10-31T08:16:47;20.90;99.90
13148;DHT22;6639;50.956;4.242;2022-10-31T08:19:14;21.10;99.90
13148;DHT22;6639;50.956;4.242;2022-10-31T08:21:41;21.20;99.90
13148;DHT22;6639;50.956;4.242;2022-10-31T08:24:08;21.30;99.90
13148;DHT22;6639;50.956;4.242;2022-10-31T08:26:35;21.40;99.90
13148;DHT22;6639;50.956;4.242;2022-10-31T08:29:02;21.60;99.90
13148;DHT22;6639;50.956;4.242;2022-10-31T08:31:29;21.70;99.90
13148;DHT22;6639;50.956;4.242;2022-10-31T08:33:57;21.80;99.90
13148;DHT22;6639;50.956;4.242;2022-10-31T08:36:24;21.70;99.90
13148;DHT22;6639;50.956;4.242;2022-10-31T08:38:51;21.50;99.90
13148;DHT22;6639;50.956;4.242;2022-10-31T08:41:18;21.80;99.90
13148;DHT22;6639;50.956;4.242;2022-10-31T08:43:45;21.80;99.90
13148;DHT22;6639;50.956;4.242;2022-10-31T08:46:12;21.80;99.90
13148;DHT22;6639;50.956;4.242;2022-10-31T08:48:39;21.80;99.90
13148;DHT22;6639;50.956;4.242;2022-10-31T08:51:09;21.80;99.90
13148;DHT22;6639;50.956;4.242;2022-10-31T08:53:36;21.70;99.90
13148;DHT22;6639;50.956;4.242;2022-10-31T08:56:03;21.50;99.90
13148;DHT22;6639;50.956;4.242;2022-10-31T08:58:30;21.20;99.90
13148;DHT22;6639;50.956;4.242;2022-10-31T09:00:59;21.20;99.90
13148;DHT22;6639;50.956;4.242;2022-10-31T09:03:28;20.80;99.90
13148;DHT22;6639;50.956;4.242;2022-10-31T09:05:58;21.20;99.90
13148;DHT22;6639;50.956;4.242;2022-10-31T09:08:28;21.60;99.90
13148;DHT22;6639;50.956;4.242;2022-10-31T09:10:56;21.80;99.90
13148;DHT22;6639;50.956;4.242;2022-10-31T09:13:24;21.90;99.90
13148;DHT22;6639;50.956;4.242;2022-10-31T09:15:51;21.80;99.90
13148;DHT22;6639;50.956;4.242;2022-10-31T09:18:19;21.90;99.90
13148;DHT22;6639;50.956;4.242;2022-10-31T09:20:47;22.00;99.90
13148;DHT22;6639;50.956;4.242;2022-10-31T09:23:15;22.30;99.90
13148;DHT22;6639;50.956;4.242;2022-10-31T09:25:44;22.40;99.90
13148;DHT22;6639;50.956;4.242;2022-10-31T09:28:13;22.30;99.90
13148;DHT22;6639;50.956;4.242;2022-10-31T09:30:41;22.00;99.90
13148;DHT22;6639;50.956;4.242;2022-10-31T09:33:10;22.00;99.90
13148;DHT22;6639;50.956;4.242;2022-10-31T09:35:38;22.20;99.90
13148;DHT22;6639;50.956;4.242;2022-10-31T09:38:07;22.20;99.90
13148;DHT22;6639;50.956;4.242;2022-10-31T09:40:36;22.10;99.90
13148;DHT22;6639;50.956;4.242;2022-10-31T09:43:12;22.00;99.90
13148;DHT22;6639;50.956;4.242;2022-10-31T09:45:47;22.10;99.90
13148;DHT22;6639;50.956;4.242;2022-10-31T09:48:37;22.00;99.90
13148;DHT22;6639;50.956;4.242;2022-10-31T09:51:06;22.30;99.90
13148;DHT22;6639;50.956;4.242;2022-10-31T09:53:38;22.40;99.90
13148;DHT22;6639;50.956;4.242;2022-10-31T09:56:08;22.50;99.90
13148;DHT22;6639;50.956;4.242;2022-10-31T09:58:42;22.40;99.90
13148;DHT22;6639;50.956;4.242;2022-10-31T10:01:19;22.60;99.90
13148;DHT22;6639;50.956;4.242;2022-10-31T10:03:53;22.70;99.90
13148;DHT22;6639;50.956;4.242;2022-10-31T10:06:23;22.80;99.90
13148;DHT22;6639;50.956;4.242;2022-10-31T10:08:51;22.80;99.90
13148;DHT22;6639;50.956;4.242;2022-10-31T10:11:29;22.40;99.90
13148;DHT22;6639;50.956;4.242;2022-10-31T10:14:11;22.30;99.90
13148;DHT22;6639;50.956;4.242;2022-10-31T10:16:53;21.80;99.90
13148;DHT22;6639;50.956;4.242;2022-10-31T10:19:32;21.10;99.90
13148;DHT22;6639;50.956;4.242;2022-10-31T10:22:06;21.10;99.90
13148;DHT22;6639;50.956;4.242;2022-10-31T10:24:51;21.00;99.90
13148;DHT22;6639;50.956;4.242;2022-10-31T10:27:27;21.20;99.90
13148;DHT22;6639;50.956;4.242;2022-10-31T10:30:02;21.50;99.90
13148;DHT22;6639;50.956;4.242;2022-10-31T10:32:40;20.90;99.90
13148;DHT22;6639;50.956;4.242;2022-10-31T10:35:17;21.00;99.90
13148;DHT22;6639;50.956;4.242;2022-10-31T10:37:47;21.10;99.90
13148;DHT22;6639;50.956;4.242;2022-10-31T10:40:17;20.50;99.90
13148;DHT22;6639;50.956;4.242;2022-10-31T10:42:45;20.90;99.90
13148;DHT22;6639;50.956;4.242;2022-10-31T10:45:37;21.00;99.90
13148;DHT22;6639;50.956;4.242;2022-10-31T10:48:32;21.10;99.90
13148;DHT22;6639;50.956;4.242;2022-10-31T10:51:03;21.00;99.90
13148;DHT22;6639;50.956;4.242;2022-10-31T10:53:42;21.30;99.90
13148;DHT22;6639;50.956;4.242;2022-10-31T10:56:35;21.40;99.90
13148;DHT22;6639;50.956;4.242;2022-10-31T10:59:03;22.10;99.90
13148;DHT22;6639;50.956;4.242;2022-10-31T11:01:32;22.30;99.90
13148;DHT22;6639;50.956;4.242;2022-10-31T11:03:58;22.00;99.90
13148;DHT22;6639;50.956;4.242;2022-10-31T11:06:25;22.10;99.90
13148;DHT22;6639;50.956;4.242;2022-10-31T11:08:53;22.30;99.90
13148;DHT22;6639;50.956;4.242;2022-10-31T11:11:24;21.40;99.90
13148;DHT22;6639;50.956;4.242;2022-10-31T11:13:58;21.60;99.90
13148;DHT22;6639;50.956;4.242;2022-10-31T11:16:33;21.60;99.90
13148;DHT22;6639;50.956;4.242;2022-10-31T11:19:13;21.50;99.90
13148;DHT22;6639;50.956;4.242;2022-10-31T11:21:41;21.60;99.90
13148;DHT22;6639;50.956;4.242;2022-10-31T11:24:15;21.20;99.90
13148;DHT22;6639;50.956;4.242;2022-10-31T11:26:44;21.20;99.90
13148;DHT22;6639;50.956;4.242;2022-10-31T11:29:14;20.90;99.90
13148;DHT22;6639;50.956;4.242;2022-10-31T11:31:45;20.70;99.90
13148;DHT22;6639;50.956;4.242;2022-10-31T11:34:26;20.30;99.90
13148;DHT22;6639;50.956;4.242;2022-10-31T11:36:54;20.30;99.90
13148;DHT22;6639;50.956;4.242;2022-10-31T11:39:24;20.60;99.90
13148;DHT22;6639;50.956;4.242;2022-10-31T11:41:52;20.60;99.90
13148;DHT22;6639;50.956;4.242;2022-10-31T11:44:22;20.60;99.90
13148;DHT22;6639;50.956;4.242;2022-10-31T11:46:52;20.60;99.90
13148;DHT22;6639;50.956;4.242;2022-10-31T11:49:25;20.30;99.90
13148;DHT22;6639;50.956;4.242;2022-10-31T11:51:56;20.00;99.90
13148;DHT22;6639;50.956;4.242;2022-10-31T11:54:26;20.30;99.90
13148;DHT22;6639;50.956;4.242;2022-10-31T11:56:54;20.40;99.90
13148;DHT22;6639;50.956;4.242;2022-10-31T11:59:26;20.30;99.90
13148;DHT22;6639;50.956;4.242;2022-10-31T12:01:56;20.10;99.90
13148;DHT22;6639;50.956;4.242;2022-10-31T12:04:32;20.00;99.90
13148;DHT22;6639;50.956;4.242;2022-10-31T12:07:02;20.30;99.90
13148;DHT22;6639;50.956;4.242;2022-10-31T12:09:30;20.20;99.90
13148;DHT22;6639;50.956;4.242;2022-10-31T12:15:25;20.00;99.90
13148;DHT22;6639;50.956;4.242;2022-10-31T12:18:08;20.20;99.90
13148;DHT22;6639;50.956;4.242;2022-10-31T12:20:48;20.20;99.90
13148;DHT22;6639;50.956;4.242;2022-10-31T12:23:26;20.80;99.90
13148;DHT22;6639;50.956;4.242;2022-10-31T12:26:02;21.40;99.90
13148;DHT22;6639;50.956;4.242;2022-10-31T12:28:44;21.50;99.90
13148;DHT22;6639;50.956;4.242;2022-10-31T12:31:26;21.80;99.90
13148;DHT22;6639;50.956;4.242;2022-10-31T12:34:06;22.40;99.90
13148;DHT22;6639;50.956;4.242;2022-10-31T12:36:47;22.40;99.90
13148;DHT22;6639;50.956;4.242;2022-10-31T12:39:24;22.80;99.90
13148;DHT22;6639;50.956;4.242;2022-10-31T12:41:53;22.80;99.90
13148;DHT22;6639;50.956;4.242;2022-10-31T12:44:48;23.10;99.90
13148;DHT22;6639;50.956;4.242;2022-10-31T12:50:35;23.10;99.90
13148;DHT22;6639;50.956;4.242;2022-10-31T12:53:19;23.40;99.90
13148;DHT22;6639;50.956;4.242;2022-10-31T12:55:59;23.20;99.90
13148;DHT22;6639;50.956;4.242;2022-10-31T12:58:31;23.10;99.90
13148;DHT22;6639;50.956;4.242;2022-10-31T13:01:06;23.70;99.90
13148;DHT22;6639;50.956;4.242;2022-10-31T13:03:42;24.40;99.90
13148;DHT22;6639;50.956;4.242;2022-10-31T13:06:16;24.10;99.90
13148;DHT22;6639;50.956;4.242;2022-10-31T13:08:47;24.10;99.90
13148;DHT22;6639;50.956;4.242;2022-10-31T13:11:16;23.60;99.90
13148;DHT22;6639;50.956;4.242;2022-10-31T13:13:52;23.30;99.90
13148;DHT22;6639;50.956;4.242;2022-10-31T13:16:22;23.20;99.90
13148;DHT22;6639;50.956;4.242;2022-10-31T13:18:55;22.90;99.90
13148;DHT22;6639;50.956;4.242;2022-10-31T13:21:28;23.20;99.90
13148;DHT22;6639;50.956;4.242;2022-10-31T13:24:00;23.70;99.90
13148;DHT22;6639;50.956;4.242;2022-10-31T13:26:37;23.90;99.90
13148;DHT22;6639;50.956;4.242;2022-10-31T13:29:12;24.00;99.90
13148;DHT22;6639;50.956;4.242;2022-10-31T13:31:41;24.10;99.90
13148;DHT22;6639;50.956;4.242;2022-10-31T13:34:20;24.60;99.90
13148;DHT22;6639;50.956;4.242;2022-10-31T13:36:59;24.80;99.90
13148;DHT22;6639;50.956;4.242;2022-10-31T13:39:38;24.90;99.90
13148;DHT22;6639;50.956;4.242;2022-10-31T13:42:14;25.00;99.90
13148;DHT22;6639;50.956;4.242;2022-10-31T13:44:42;24.40;99.90
13148;DHT22;6639;50.956;4.242;2022-10-31T13:47:22;24.40;99.90
13148;DHT22;6639;50.956;4.242;2022-10-31T13:49:50;24.50;99.90
13148;DHT22;6639;50.956;4.242;2022-10-31T13:52:24;24.10;99.90
13148;DHT22;6639;50.956;4.242;2022-10-31T13:54:52;24.00;99.90
13148;DHT22;6639;50.956;4.242;2022-10-31T13:57:30;23.80;99.90
13148;DHT22;6639;50.956;4.242;2022-10-31T13:59:59;23.50;99.90
13148;DHT22;6639;50.956;4.242;2022-10-31T14:02:29;23.80;99.90
13148;DHT22;6639;50.956;4.242;2022-10-31T14:04:58;24.10;99.90
13148;DHT22;6639;50.956;4.242;2022-10-31T14:07:28;23.90;99.90
13148;DHT22;6639;50.956;4.242;2022-10-31T14:09:58;23.60;99.90
13148;DHT22;6639;50.956;4.242;2022-10-31T14:12:30;23.10;99.90
13148;DHT22;6639;50.956;4.242;2022-10-31T14:15:01;22.90;99.90
13148;DHT22;6639;50.956;4.242;2022-10-31T14:17:39;23.00;99.90
13148;DHT22;6639;50.956;4.242;2022-10-31T14:20:38;22.70;99.90
13148;DHT22;6639;50.956;4.242;2022-10-31T14:23:32;23.20;99.90
13148;DHT22;6639;50.956;4.242;2022-10-31T14:26:21;23.50;99.90
13148;DHT22;6639;50.956;4.242;2022-10-31T14:28:49;23.80;99.90
13148;DHT22;6639;50.956;4.242;2022-10-31T14:31:34;23.60;99.90
13148;DHT22;6639;50.956;4.242;2022-10-31T14:34:17;23.00;99.90
13148;DHT22;6639;50.956;4.242;2022-10-31T14:36:55;23.00;99.90
13148;DHT22;6639;50.956;4.242;2022-10-31T14:39:29;23.40;99.90
13148;DHT22;6639;50.956;4.242;2022-10-31T14:42:09;23.50;99.90
13148;DHT22;6639;50.956;4.242;2022-10-31T14:45:05;23.60;99.90
13148;DHT22;6639;50.956;4.242;2022-10-31T14:47:41;23.30;99.90
13148;DHT22;6639;50.956;4.242;2022-10-31T14:50:29;23.40;99.90
13148;DHT22;6639;50.956;4.242;2022-10-31T14:53:01;23.10;99.90
13148;DHT22;6639;50.956;4.242;2022-10-31T14:55:31;23.80;99.90
13148;DHT22;6639;50.956;4.242;2022-10-31T14:58:00;23.80;99.90
13148;DHT22;6639;50.956;4.242;2022-10-31T15:00:29;24.60;99.90
13148;DHT22;6639;50.956;4.242;2022-10-31T15:03:06;25.20;99.90
13148;DHT22;6639;50.956;4.242;2022-10-31T15:05:35;25.40;99.90
13148;DHT22;6639;50.956;4.242;2022-10-31T15:08:13;25.80;99.90
13148;DHT22;6639;50.956;4.242;2022-10-31T15:10:45;25.80;99.90
13148;DHT22;6639;50.956;4.242;2022-10-31T15:13:19;25.70;99.90
13148;DHT22;6639;50.956;4.242;2022-10-31T15:15:47;25.90;99.90
13148;DHT22;6639;50.956;4.242;2022-10-31T15:18:16;25.90;99.90
13148;DHT22;6639;50.956;4.242;2022-10-31T15:20:45;26.00;99.90
13148;DHT22;6639;50.956;4.242;2022-10-31T15:23:16;26.30;99.90
13148;DHT22;6639;50.956;4.242;2022-10-31T15:25:46;26.10;99.90
13148;DHT22;6639;50.956;4.242;2022-10-31T15:28:14;26.00;99.90
13148;DHT22;6639;50.956;4.242;2022-10-31T15:30:50;25.60;99.90
13148;DHT22;6639;50.956;4.242;2022-10-31T15:33:23;25.80;99.90
13148;DHT22;6639;50.956;4.242;2022-10-31T15:35:55;25.50;99.90
13148;DHT22;6639;50.956;4.242;2022-10-31T15:38:24;25.60;99.90
13148;DHT22;6639;50.956;4.242;2022-10-31T15:40:54;25.60;99.90
13148;DHT22;6639;50.956;4.242;2022-10-31T15:43:22;25.90;99.90
13148;DHT22;6639;50.956;4.242;2022-10-31T15:45:49;26.30;99.90
13148;DHT22;6639;50.956;4.242;2022-10-31T15:48:17;26.50;99.90
13148;DHT22;6639;50.956;4.242;2022-10-31T15:50:47;26.70;99.90
13148;DHT22;6639;50.956;4.242;2022-10-31T15:53:17;26.60;99.90
13148;DHT22;6639;50.956;4.242;2022-10-31T15:55:48;26.70;99.90
13148;DHT22;6639;50.956;4.242;2022-10-31T15:58:18;26.60;99.90
13148;DHT22;6639;50.956;4.242;2022-10-31T16:00:57;26.00;99.90
13148;DHT22;6639;50.956;4.242;2022-10-31T16:03:26;25.70;99.90
13148;DHT22;6639;50.956;4.242;2022-10-31T16:05:54;25.40;99.90
13148;DHT22;6639;50.956;4.242;2022-10-31T16:08:24;25.40;99.90
13148;DHT22;6639;50.956;4.242;2022-10-31T16:10:52;24.90;99.90
13148;DHT22;6639;50.956;4.242;2022-10-31T16:13:25;24.80;99.90
13148;DHT22;6639;50.956;4.242;2022-10-31T16:15:55;24.90;99.90